createdAt,value
2018-01-30T00:01:00.330Z,2.90
2018-01-30T00:03:28.878Z,3.60
2018-01-30T00:05:58.010Z,3.33
2018-01-30T00:08:26.373Z,2.90
2018-01-30T00:10:54.733Z,3.10
2018-01-30T00:13:23.864Z,3.53
2018-01-30T00:15:52.224Z,3.00
2018-01-30T00:18:20.618Z,3.47
2018-01-30T00:20:49.008Z,4.43
2018-01-30T00:23:17.369Z,3.80
2018-01-30T00:25:45.736Z,3.80
2018-01-30T00:28:14.102Z,3.20
2018-01-30T00:30:44.251Z,4.73
2018-01-30T00:33:12.780Z,3.90
2018-01-30T00:35:41.970Z,3.87
2018-01-30T00:38:11.174Z,3.87
2018-01-30T00:40:39.646Z,4.17
2018-01-30T00:43:08.053Z,4.50
2018-01-30T00:45:36.443Z,4.50
2018-01-30T00:48:05.647Z,4.23
2018-01-30T00:50:34.026Z,4.60
2018-01-30T00:53:02.379Z,4.97
2018-01-30T00:55:30.759Z,4.67
2018-01-30T00:57:59.159Z,5.20
2018-01-30T01:00:27.558Z,6.20
2018-01-30T01:02:56.197Z,6.30
2018-01-30T01:05:25.358Z,6.07
2018-01-30T01:07:53.051Z,7.23
2018-01-30T01:10:21.436Z,7.37
2018-01-30T01:12:50.587Z,8.67
2018-01-30T01:15:18.928Z,8.30
2018-01-30T01:17:47.287Z,9.30
2018-01-30T01:20:16.407Z,8.63
2018-01-30T01:22:44.820Z,9.67
2018-01-30T01:25:13.266Z,8.87
2018-01-30T01:27:41.866Z,9.90
2018-01-30T01:30:09.579Z,10.90
2018-01-30T01:32:42.448Z,10.10
2018-01-30T01:35:10.803Z,9.90
2018-01-30T01:37:38.519Z,12.03
2018-01-30T01:40:07.508Z,12.23
2018-01-30T01:42:36.673Z,10.80
2018-01-30T01:45:05.686Z,11.70
2018-01-30T01:47:34.821Z,11.63
2018-01-30T01:50:03.547Z,11.97
2018-01-30T01:52:31.894Z,13.07
2018-01-30T01:55:00.281Z,13.13
2018-01-30T01:57:28.788Z,13.00
2018-01-30T01:59:57.938Z,12.87
2018-01-30T02:02:27.071Z,14.30
2018-01-30T02:04:55.450Z,13.53
2018-01-30T02:07:24.604Z,12.80
2018-01-30T02:09:52.992Z,14.53
2018-01-30T02:12:21.626Z,15.20
2018-01-30T02:14:51.371Z,14.33
2018-01-30T02:17:19.818Z,14.00
2018-01-30T02:19:49.046Z,15.27
2018-01-30T02:22:17.415Z,15.20
2018-01-30T02:24:45.786Z,14.70
2018-01-30T02:27:14.246Z,13.50
2018-01-30T02:29:43.367Z,15.63
2018-01-30T02:32:11.784Z,17.00
2018-01-30T02:34:40.143Z,15.43
2018-01-30T02:37:08.526Z,15.67
2018-01-30T02:39:37.107Z,15.53
2018-01-30T02:42:05.617Z,16.70
2018-01-30T02:44:33.974Z,15.07
2018-01-30T02:47:02.030Z,15.60
2018-01-30T02:49:30.412Z,14.80
2018-01-30T02:51:58.789Z,15.57
2018-01-30T02:54:27.172Z,15.87
2018-01-30T02:56:55.711Z,15.00
2018-01-30T02:59:25.062Z,16.13
2018-01-30T03:01:53.405Z,15.13
2018-01-30T03:04:21.805Z,14.57
2018-01-30T03:06:50.167Z,15.60
2018-01-30T03:09:18.363Z,16.00
2018-01-30T03:11:46.740Z,15.60
2018-01-30T03:14:15.173Z,16.20
2018-01-30T03:16:44.317Z,17.53
2018-01-30T03:19:12.786Z,17.73
2018-01-30T03:21:41.165Z,18.47
2018-01-30T03:24:09.682Z,17.17
2018-01-30T03:26:38.023Z,18.47
2018-01-30T03:29:06.230Z,17.30
2018-01-30T03:31:34.600Z,18.27
2018-01-30T03:34:02.973Z,16.47
2018-01-30T03:36:31.334Z,15.07
2018-01-30T03:38:59.713Z,16.27
2018-01-30T03:41:28.077Z,16.87
2018-01-30T03:43:56.593Z,17.80
2018-01-30T03:46:25.216Z,15.90
2018-01-30T03:48:54.477Z,17.83
2018-01-30T03:51:22.835Z,17.70
2018-01-30T03:53:51.227Z,16.57
2018-01-30T03:56:20.521Z,17.47
2018-01-30T03:58:48.908Z,15.40
2018-01-30T04:01:16.664Z,15.90
2018-01-30T04:03:45.005Z,15.93
2018-01-30T04:06:13.372Z,15.03
2018-01-30T04:08:41.728Z,16.47
2018-01-30T04:11:10.113Z,15.67
2018-01-30T04:13:39.254Z,14.33
2018-01-30T04:16:07.753Z,15.27
2018-01-30T04:18:36.123Z,15.60
2018-01-30T04:21:04.152Z,15.13
2018-01-30T04:23:33.311Z,15.07
2018-01-30T04:26:01.679Z,16.73
2018-01-30T04:28:30.055Z,16.40
2018-01-30T04:30:58.442Z,15.73
2018-01-30T04:33:26.924Z,15.70
2018-01-30T04:35:55.299Z,15.50
2018-01-30T04:38:23.672Z,14.37
2018-01-30T04:40:52.110Z,15.77
2018-01-30T04:43:20.628Z,14.27
2018-01-30T04:45:49.002Z,16.33
2018-01-30T04:48:17.388Z,15.20
2018-01-30T04:50:45.802Z,16.77
2018-01-30T04:53:14.978Z,18.33
2018-01-30T04:55:45.876Z,16.23
2018-01-30T04:58:14.277Z,18.03
2018-01-30T05:00:42.650Z,18.37
2018-01-30T05:03:11.025Z,17.20
2018-01-30T05:05:39.402Z,15.93
2018-01-30T05:08:07.797Z,15.37
2018-01-30T05:10:36.159Z,16.90
2018-01-30T05:13:04.257Z,16.07
2018-01-30T05:15:32.651Z,15.33
2018-01-30T05:18:01.775Z,16.70
2018-01-30T05:20:30.141Z,15.40
2018-01-30T05:22:58.617Z,14.97
2018-01-30T05:25:27.745Z,14.30
2018-01-30T05:27:56.095Z,14.83
2018-01-30T05:30:24.518Z,15.60
2018-01-30T05:32:52.905Z,14.77
2018-01-30T05:35:21.268Z,16.83
2018-01-30T05:37:49.649Z,14.33
2018-01-30T05:40:18.012Z,14.67
2018-01-30T05:42:46.067Z,14.97
2018-01-30T05:45:14.425Z,15.57
2018-01-30T05:47:42.819Z,14.70
2018-01-30T05:50:11.198Z,16.03
2018-01-30T05:52:39.278Z,16.63
2018-01-30T05:55:08.006Z,15.53
2018-01-30T05:57:36.382Z,15.77
2018-01-30T06:00:04.123Z,16.30
2018-01-30T06:02:32.453Z,16.03
2018-01-30T06:05:01.592Z,15.40
2018-01-30T06:07:29.932Z,15.30
2018-01-30T06:09:59.136Z,16.40
2018-01-30T06:12:27.593Z,15.57
2018-01-30T06:14:55.750Z,16.30
2018-01-30T06:17:24.139Z,18.33
2018-01-30T06:19:52.566Z,15.50
2018-01-30T06:22:20.989Z,14.80
2018-01-30T06:24:50.294Z,16.63
2018-01-30T06:27:18.651Z,16.00
2018-01-30T06:29:47.205Z,17.60
2018-01-30T06:32:15.643Z,15.57
2018-01-30T06:34:44.018Z,15.43
2018-01-30T06:37:13.165Z,15.23
2018-01-30T06:39:41.535Z,16.83
2018-01-30T06:42:09.920Z,15.03
2018-01-30T06:44:38.437Z,16.53
2018-01-30T06:47:06.798Z,16.83
2018-01-30T06:49:35.290Z,16.37
2018-01-30T06:52:03.655Z,17.10
2018-01-30T06:54:32.097Z,17.03
2018-01-30T06:57:00.440Z,17.40
2018-01-30T06:59:30.329Z,18.30
2018-01-30T07:01:58.780Z,16.60
2018-01-30T07:04:27.335Z,17.00
2018-01-30T07:06:56.481Z,16.37
2018-01-30T07:09:24.977Z,16.90
2018-01-30T07:11:53.345Z,17.30
2018-01-30T07:14:21.726Z,16.33
2018-01-30T07:16:50.117Z,17.93
2018-01-30T07:19:18.491Z,18.03
2018-01-30T07:21:46.915Z,19.00
2018-01-30T07:24:15.717Z,18.07
2018-01-30T07:26:44.009Z,17.93
2018-01-30T07:29:12.407Z,18.10
2018-01-30T07:31:40.777Z,17.97
2018-01-30T07:34:08.828Z,18.70
2018-01-30T07:36:37.440Z,19.33
2018-01-30T07:39:05.201Z,17.63
2018-01-30T07:41:33.830Z,18.93
2018-01-30T07:44:02.999Z,17.90
2018-01-30T07:46:31.739Z,20.47
2018-01-30T07:49:00.088Z,18.93
2018-01-30T07:51:29.240Z,20.07
2018-01-30T07:53:57.651Z,20.67
2018-01-30T07:56:26.961Z,18.20
2018-01-30T07:58:56.121Z,20.93
2018-01-30T08:01:24.710Z,19.07
2018-01-30T08:03:53.096Z,21.00
2018-01-30T08:06:20.839Z,19.10
2018-01-30T08:08:49.284Z,20.53
2018-01-30T08:11:17.679Z,21.47
2018-01-30T08:13:46.269Z,21.70
2018-01-30T08:16:14.636Z,22.20
2018-01-30T08:18:43.160Z,22.60
2018-01-30T08:21:10.881Z,20.70
2018-01-30T08:23:39.244Z,21.07
2018-01-30T08:26:07.608Z,22.27
2018-01-30T08:28:36.037Z,21.90
2018-01-30T08:31:04.403Z,23.10
2018-01-30T08:33:32.934Z,22.87
2018-01-30T08:36:02.080Z,23.73
2018-01-30T08:38:30.614Z,23.20
2018-01-30T08:40:59.737Z,24.60
2018-01-30T08:43:28.205Z,23.13
2018-01-30T08:45:56.644Z,22.57
2018-01-30T08:48:24.388Z,22.03
2018-01-30T08:50:52.769Z,21.80
2018-01-30T08:53:21.162Z,21.93
2018-01-30T08:55:50.111Z,22.07
2018-01-30T08:58:18.539Z,23.10
2018-01-30T09:00:48.915Z,23.10
2018-01-30T09:03:17.295Z,24.97
2018-01-30T09:05:45.724Z,23.50
2018-01-30T09:08:15.045Z,22.97
2018-01-30T09:10:43.618Z,23.30
2018-01-30T09:13:12.010Z,20.27
2018-01-30T09:15:41.076Z,20.70
2018-01-30T09:18:09.315Z,21.43
2018-01-30T09:20:37.716Z,24.80
2018-01-30T09:23:06.378Z,26.60
2018-01-30T09:25:34.740Z,23.97
2018-01-30T09:28:03.112Z,26.27
2018-01-30T09:30:31.467Z,25.03
2018-01-30T09:33:00.787Z,25.60
2018-01-30T09:35:28.931Z,27.30
2018-01-30T09:37:58.118Z,27.40
2018-01-30T09:40:26.835Z,27.23
2018-01-30T09:42:55.252Z,28.20
2018-01-30T09:45:23.753Z,25.20
2018-01-30T09:47:52.263Z,26.07
2018-01-30T09:50:20.891Z,26.23
2018-01-30T09:52:49.520Z,25.33
2018-01-30T09:55:18.667Z,25.50
2018-01-30T09:57:47.052Z,23.67
2018-01-30T10:00:15.485Z,24.97
2018-01-30T10:02:44.669Z,25.40
2018-01-30T10:05:13.935Z,23.20
2018-01-30T10:07:42.294Z,23.77
2018-01-30T10:10:10.869Z,23.80
2018-01-30T10:12:40.103Z,22.90
2018-01-30T10:15:08.483Z,25.70
2018-01-30T10:17:37.797Z,25.47
2018-01-30T10:20:06.558Z,22.80
2018-01-30T10:22:35.126Z,24.40
2018-01-30T10:25:03.500Z,22.97
2018-01-30T10:27:32.073Z,22.80
2018-01-30T10:30:00.446Z,22.70
2018-01-30T10:32:28.878Z,23.37
2018-01-30T10:34:57.428Z,23.27
2018-01-30T10:37:25.901Z,22.73
2018-01-30T10:39:54.549Z,23.00
2018-01-30T10:42:23.682Z,23.47
2018-01-30T10:44:52.057Z,23.43
2018-01-30T10:47:20.425Z,23.60
2018-01-30T10:49:48.127Z,23.70
2018-01-30T10:52:16.507Z,22.63
2018-01-30T10:54:44.875Z,22.70
2018-01-30T10:57:13.361Z,21.57
2018-01-30T10:59:41.876Z,24.27
2018-01-30T11:02:11.060Z,23.47
2018-01-30T11:04:40.259Z,22.83
2018-01-30T11:07:09.599Z,24.40
2018-01-30T11:09:38.135Z,22.73
2018-01-30T11:12:06.694Z,22.27
2018-01-30T11:14:35.152Z,23.60
2018-01-30T11:17:03.525Z,21.23
2018-01-30T11:19:31.904Z,20.70
2018-01-30T11:22:00.453Z,20.37
2018-01-30T11:24:29.607Z,20.40
2018-01-30T11:26:57.994Z,19.77
2018-01-30T11:29:27.311Z,19.17
2018-01-30T11:31:56.047Z,19.00
2018-01-30T11:34:24.695Z,19.67
2018-01-30T11:36:54.151Z,18.20
2018-01-30T11:39:22.542Z,17.80
2018-01-30T11:41:51.057Z,17.50
2018-01-30T11:44:19.431Z,18.07
2018-01-30T11:46:48.566Z,21.03
2018-01-30T11:49:16.947Z,19.10
2018-01-30T11:51:45.351Z,21.00
2018-01-30T11:54:13.061Z,21.40
2018-01-30T11:56:41.445Z,20.53
2018-01-30T11:59:09.147Z,19.73
2018-01-30T12:01:37.208Z,20.23
2018-01-30T12:04:05.582Z,18.83
2018-01-30T12:06:33.950Z,15.73
2018-01-30T12:09:02.331Z,16.27
2018-01-30T12:11:30.725Z,15.83
2018-01-30T12:13:59.091Z,16.07
2018-01-30T12:16:28.297Z,13.20
2018-01-30T12:18:56.678Z,14.23
2018-01-30T12:21:25.048Z,14.60
2018-01-30T12:23:53.676Z,15.10
2018-01-30T12:26:22.304Z,14.57
2018-01-30T12:28:50.680Z,13.73
2018-01-30T12:31:19.033Z,13.93
2018-01-30T12:33:48.220Z,13.30
2018-01-30T12:36:17.349Z,14.10
2018-01-30T12:38:45.686Z,14.00
2018-01-30T12:41:14.040Z,14.37
2018-01-30T12:43:42.424Z,14.67
2018-01-30T12:46:10.782Z,14.03
2018-01-30T12:48:39.206Z,13.83
2018-01-30T12:51:08.379Z,14.57
2018-01-30T12:53:36.799Z,16.33
2018-01-30T12:56:06.579Z,16.30
2018-01-30T12:58:34.939Z,14.83
2018-01-30T13:01:03.478Z,14.43
2018-01-30T13:03:31.891Z,13.63
2018-01-30T13:06:00.460Z,14.70
2018-01-30T13:08:28.986Z,13.67
2018-01-30T13:10:58.136Z,13.80
2018-01-30T13:13:26.770Z,14.50
2018-01-30T13:15:55.966Z,13.40
2018-01-30T13:18:25.262Z,15.27
2018-01-30T13:20:53.808Z,13.30
2018-01-30T13:23:22.184Z,14.30
2018-01-30T13:25:51.212Z,14.13
2018-01-30T13:28:19.578Z,14.00
2018-01-30T13:30:47.648Z,13.50
2018-01-30T13:33:15.996Z,13.27
2018-01-30T13:35:44.356Z,14.40
2018-01-30T13:38:12.715Z,16.10
2018-01-30T13:40:41.082Z,15.00
2018-01-30T13:43:10.220Z,14.30
2018-01-30T13:45:38.598Z,15.03
2018-01-30T13:48:07.004Z,13.43
2018-01-30T13:50:35.382Z,14.70
2018-01-30T13:53:03.758Z,14.43
2018-01-30T13:55:32.124Z,12.90
2018-01-30T13:58:00.499Z,14.37
2018-01-30T14:00:28.879Z,14.23
2018-01-30T14:02:57.448Z,15.20
2018-01-30T14:05:25.833Z,14.33
2018-01-30T14:07:54.213Z,15.87
2018-01-30T14:10:22.625Z,15.03
2018-01-30T14:12:52.643Z,16.03
2018-01-30T14:15:21.155Z,15.33
2018-01-30T14:17:49.664Z,16.50
2018-01-30T14:20:19.014Z,14.87
2018-01-30T14:22:48.238Z,16.33
2018-01-30T14:25:16.639Z,15.90
2018-01-30T14:27:45.294Z,17.37
2018-01-30T14:30:14.440Z,16.73
2018-01-30T14:32:43.006Z,16.70
2018-01-30T14:35:11.570Z,17.53
2018-01-30T14:37:40.073Z,16.03
2018-01-30T14:40:07.970Z,16.10
2018-01-30T14:42:36.529Z,16.47
2018-01-30T14:45:04.947Z,15.17
2018-01-30T14:47:34.239Z,15.50
2018-01-30T14:50:02.593Z,15.00
2018-01-30T14:52:31.004Z,15.50
2018-01-30T14:55:00.173Z,15.77
2018-01-30T14:57:28.731Z,14.40
2018-01-30T14:59:57.112Z,16.07
2018-01-30T15:02:25.510Z,16.47
2018-01-30T15:04:53.925Z,17.43
2018-01-30T15:07:23.071Z,16.83
2018-01-30T15:09:51.432Z,16.10
2018-01-30T15:12:20.110Z,14.87
2018-01-30T15:14:48.591Z,16.43
2018-01-30T15:17:16.964Z,16.30
2018-01-30T15:19:45.366Z,13.13
2018-01-30T15:22:13.784Z,15.30
2018-01-30T15:24:42.156Z,16.07
2018-01-30T15:27:12.055Z,14.80
2018-01-30T15:29:40.113Z,14.67
2018-01-30T15:32:08.142Z,16.23
2018-01-30T15:34:37.274Z,15.47
2018-01-30T15:37:05.797Z,15.23
2018-01-30T15:39:34.628Z,15.40
2018-01-30T15:42:03.019Z,14.53
2018-01-30T15:44:31.582Z,16.30
2018-01-30T15:47:00.044Z,15.73
2018-01-30T15:49:29.200Z,15.50
2018-01-30T15:51:57.643Z,13.80
2018-01-30T15:54:25.337Z,15.13
2018-01-30T15:56:53.828Z,13.83
2018-01-30T15:59:22.323Z,15.10
2018-01-30T16:01:50.727Z,14.80
2018-01-30T16:04:19.159Z,14.20
2018-01-30T16:06:47.602Z,14.03
2018-01-30T16:09:15.966Z,14.80
2018-01-30T16:11:44.384Z,14.37
2018-01-30T16:14:12.746Z,15.43
2018-01-30T16:16:41.120Z,14.10
2018-01-30T16:19:09.503Z,14.37
2018-01-30T16:21:37.870Z,15.67
2018-01-30T16:24:05.647Z,15.50
2018-01-30T16:26:34.011Z,15.67
2018-01-30T16:29:02.455Z,15.10
2018-01-30T16:31:31.901Z,15.40
2018-01-30T16:34:00.294Z,16.17
2018-01-30T16:36:28.662Z,15.83
2018-01-30T16:38:57.044Z,14.93
2018-01-30T16:41:25.718Z,14.57
2018-01-30T16:43:54.251Z,16.30
2018-01-30T16:46:24.127Z,15.90
2018-01-30T16:48:52.655Z,17.27
2018-01-30T16:51:21.804Z,16.53
2018-01-30T16:53:50.215Z,15.80
2018-01-30T16:56:18.591Z,16.30
2018-01-30T16:58:47.029Z,16.43
2018-01-30T17:01:15.403Z,15.83
2018-01-30T17:03:43.833Z,15.40
2018-01-30T17:06:13.027Z,16.10
2018-01-30T17:08:41.536Z,16.50
2018-01-30T17:11:09.429Z,16.73
2018-01-30T17:13:37.784Z,15.63
2018-01-30T17:16:06.292Z,16.17
2018-01-30T17:18:34.667Z,16.20
2018-01-30T17:21:03.043Z,15.60
2018-01-30T17:23:31.406Z,15.50
2018-01-30T17:25:59.948Z,15.70
2018-01-30T17:28:28.435Z,14.77
2018-01-30T17:30:56.805Z,14.10
2018-01-30T17:33:25.163Z,15.40
2018-01-30T17:35:53.665Z,14.20
2018-01-30T17:38:23.553Z,16.60
2018-01-30T17:40:51.804Z,16.67
2018-01-30T17:43:20.152Z,15.27
2018-01-30T17:45:49.294Z,15.83
2018-01-30T17:48:17.682Z,15.80
2018-01-30T17:50:46.057Z,16.27
2018-01-30T17:53:14.595Z,16.33
2018-01-30T17:55:43.260Z,16.20
2018-01-30T17:58:12.564Z,19.20
2018-01-30T18:00:42.332Z,17.40
2018-01-30T18:03:10.741Z,17.63
2018-01-30T18:05:39.882Z,15.57
2018-01-30T18:08:08.289Z,16.47
2018-01-30T18:10:36.643Z,15.40
2018-01-30T18:13:05.056Z,15.60
2018-01-30T18:15:33.443Z,15.90
2018-01-30T18:18:01.836Z,15.60
2018-01-30T18:20:31.001Z,15.10
2018-01-30T18:22:59.415Z,14.97
2018-01-30T18:25:28.731Z,14.93
2018-01-30T18:27:57.274Z,15.97
2018-01-30T18:30:25.709Z,15.07
2018-01-30T18:32:54.165Z,15.20
2018-01-30T18:35:22.705Z,13.80
2018-01-30T18:37:51.091Z,15.93
2018-01-30T18:40:19.489Z,14.00
2018-01-30T18:42:47.867Z,14.40
2018-01-30T18:45:16.254Z,13.67
2018-01-30T18:47:44.611Z,14.07
2018-01-30T18:50:13.792Z,14.30
2018-01-30T18:52:42.164Z,14.80
2018-01-30T18:55:10.583Z,14.03
2018-01-30T18:57:39.442Z,15.67
2018-01-30T19:00:07.582Z,13.43
2018-01-30T19:02:36.146Z,14.27
2018-01-30T19:05:04.685Z,15.33
2018-01-30T19:07:33.894Z,14.20
2018-01-30T19:10:03.280Z,14.37
2018-01-30T19:12:32.476Z,15.13
2018-01-30T19:15:00.862Z,14.60
2018-01-30T19:17:29.261Z,14.33
2018-01-30T19:19:58.499Z,14.57
2018-01-30T19:22:26.928Z,14.80
2018-01-30T19:24:56.114Z,15.00
2018-01-30T19:27:24.599Z,14.13
2018-01-30T19:29:53.762Z,14.33
2018-01-30T19:32:22.715Z,13.90
2018-01-30T19:34:51.231Z,14.67
2018-01-30T19:37:19.601Z,13.90
2018-01-30T19:39:47.984Z,14.77
2018-01-30T19:42:16.392Z,14.73
2018-01-30T19:44:45.052Z,13.90
2018-01-30T19:47:13.431Z,13.63
2018-01-30T19:49:41.810Z,12.93
2018-01-30T19:52:10.165Z,14.10
2018-01-30T19:54:39.129Z,14.20
2018-01-30T19:57:08.307Z,14.30
2018-01-30T19:59:36.913Z,14.00
2018-01-30T20:02:06.070Z,13.57
2018-01-30T20:04:34.495Z,14.70
2018-01-30T20:07:02.902Z,14.03
2018-01-30T20:09:31.308Z,13.73
2018-01-30T20:11:59.701Z,13.70
2018-01-30T20:14:28.237Z,14.27
2018-01-30T20:16:56.620Z,13.47
2018-01-30T20:19:24.994Z,13.57
2018-01-30T20:21:54.484Z,13.10
2018-01-30T20:24:22.861Z,12.60
2018-01-30T20:26:52.133Z,13.90
2018-01-30T20:29:21.282Z,12.53
2018-01-30T20:31:49.672Z,12.33
2018-01-30T20:34:18.056Z,13.50
2018-01-30T20:36:46.440Z,13.50
2018-01-30T20:39:14.807Z,13.00
2018-01-30T20:41:43.322Z,12.23
2018-01-30T20:44:11.803Z,12.23
2018-01-30T20:46:40.953Z,12.50
2018-01-30T20:49:09.557Z,11.40
2018-01-30T20:51:38.005Z,13.03
2018-01-30T20:54:06.395Z,11.87
2018-01-30T20:56:34.795Z,11.70
2018-01-30T20:59:03.181Z,12.63
2018-01-30T21:01:31.554Z,11.90
2018-01-30T21:03:59.952Z,11.20
2018-01-30T21:06:28.322Z,11.10
2018-01-30T21:08:56.762Z,11.60
2018-01-30T21:11:26.479Z,10.80
2018-01-30T21:13:54.874Z,11.30
2018-01-30T21:16:23.423Z,11.87
2018-01-30T21:18:51.964Z,11.27
2018-01-30T21:21:21.084Z,11.70
2018-01-30T21:23:50.261Z,12.27
2018-01-30T21:26:19.409Z,11.43
2018-01-30T21:28:47.805Z,11.37
2018-01-30T21:31:16.364Z,12.07
2018-01-30T21:33:44.734Z,10.50
2018-01-30T21:36:13.119Z,10.50
2018-01-30T21:38:41.496Z,11.40
2018-01-30T21:41:09.868Z,10.70
2018-01-30T21:43:38.284Z,10.90
2018-01-30T21:46:07.669Z,10.50
2018-01-30T21:48:36.118Z,10.30
2018-01-30T21:51:04.475Z,10.77
2018-01-30T21:53:32.879Z,9.40
2018-01-30T21:56:01.258Z,10.53
2018-01-30T21:58:29.637Z,9.60
2018-01-30T22:00:58.180Z,10.10
2018-01-30T22:03:27.322Z,10.37
2018-01-30T22:05:55.893Z,11.00
2018-01-30T22:08:24.276Z,9.67
2018-01-30T22:10:52.661Z,8.83
2018-01-30T22:13:21.236Z,9.80
2018-01-30T22:15:49.701Z,9.57
2018-01-30T22:18:18.150Z,9.60
2018-01-30T22:20:47.271Z,9.53
2018-01-30T22:23:15.624Z,9.77
2018-01-30T22:25:44.014Z,9.53
2018-01-30T22:28:13.163Z,9.33
2018-01-30T22:30:41.553Z,9.60
2018-01-30T22:33:09.916Z,10.10
2018-01-30T22:35:38.453Z,9.17
2018-01-30T22:38:06.821Z,10.47
2018-01-30T22:40:35.289Z,8.80
2018-01-30T22:43:03.704Z,9.60
2018-01-30T22:45:32.093Z,9.83
